NZOH/OHA METAR and TAF weather

Enter ICAO airport designator
Station Type Date Time Source
NZOH METAR 2022/08/10 19:00 UTC NOAA

NZOH 101900Z 10010KT 25KM FEW050 02/01 Q1019 NOSIG


Station Type Date Time Source
NZOH Decoded METAR 2022/08/10 19:00 UTC NOAA

Ohakea, New Zealand (NZOH) 40-12S 175-22E 52M
Aug 10, 2022 - 03:00 PM EDT / 2022.08.10 1900 UTC
Wind: from the E (100 degrees) at 12 MPH (10 KT):0
Sky conditions: mostly clear
Temperature: 35 F (2 C)
Windchill: 26 F (-3 C):1
Dew Point: 33 F (1 C)
Relative Humidity: 93%
Pressure (altimeter): 30.09 in. Hg (1019 hPa)
ob: NZOH 101900Z 10010KT 25KM FEW050 02/01 Q1019 NOSIG
cycle: 19

Station Type Date Time Source
NZOH TAF 2007/12/14 04:59 UTC NOAA

TAF NZOH 140459Z 140606 11020KT 30KM SCT080 BECMH 0911 03008KT
BECMG 2224 27012KT

Example: see airport list